createdAt,value
2022-08-07T00:01:44.664Z,102230.09
2022-08-07T00:03:56.988Z,102229.94
2022-08-07T00:06:33.466Z,102233.16
2022-08-07T00:09:16.659Z,102226.88
2022-08-07T00:11:55.271Z,102227.06
2022-08-07T00:14:32.199Z,102226.91
2022-08-07T00:17:06.634Z,102233.69
2022-08-07T00:19:59.797Z,102230.75
2022-08-07T00:22:35.140Z,102231.09
2022-08-07T00:25:11.135Z,102225.50
2022-08-07T00:27:52.136Z,102230.09
2022-08-07T00:30:28.536Z,102241.25
2022-08-07T00:33:02.695Z,102227.47
2022-08-07T00:35:36.625Z,102233.44
2022-08-07T00:38:11.437Z,102224.84
2022-08-07T00:40:45.526Z,102233.69
2022-08-07T00:43:59.702Z,102225.06
2022-08-07T00:46:10.728Z,102224.34
2022-08-07T00:48:43.097Z,102226.22
2022-08-07T00:51:15.774Z,102220.97
2022-08-07T00:53:55.302Z,102226.06
2022-08-07T00:56:30.178Z,102228.44
2022-08-07T00:59:03.206Z,102221.13
2022-08-07T01:01:44.579Z,102221.09
2022-08-07T01:04:24.590Z,102226.34
2022-08-07T01:06:58.278Z,102228.66
2022-08-07T01:10:04.433Z,102223.66
2022-08-07T01:12:29.879Z,102215.84
2022-08-07T01:15:03.689Z,102221.13
2022-08-07T01:17:37.927Z,102227.69
2022-08-07T01:20:17.463Z,102229.34
2022-08-07T01:23:09.065Z,102234.53
2022-08-07T01:25:55.786Z,102223.94
2022-08-07T01:28:29.228Z,102217.16
2022-08-07T01:31:04.147Z,102213.25
2022-08-07T01:33:55.236Z,102220.31
2022-08-07T01:36:33.522Z,102219.78
2022-08-07T01:39:11.657Z,102219.59
2022-08-07T01:41:55.239Z,102214.19
2022-08-07T01:44:38.018Z,102218.94
2022-08-07T01:47:14.287Z,102221.91
2022-08-07T01:50:03.688Z,102219.56
2022-08-07T01:52:39.768Z,102224.28
2022-08-07T01:55:28.846Z,102228.47
2022-08-07T01:58:06.664Z,102222.50
2022-08-07T02:01:09.725Z,102221.97
2022-08-07T02:03:48.731Z,102218.00
2022-08-07T02:06:31.225Z,102224.28
2022-08-07T02:09:08.395Z,102227.47
2022-08-07T02:12:04.721Z,102223.28
2022-08-07T02:14:41.677Z,102223.97
2022-08-07T02:17:24.879Z,102216.88
2022-08-07T02:20:04.686Z,102216.19
2022-08-07T02:22:43.699Z,102214.09
2022-08-07T02:25:18.747Z,102220.44
2022-08-07T02:27:55.296Z,102216.56
2022-08-07T02:30:27.919Z,102217.94
2022-08-07T02:33:08.960Z,102223.91
2022-08-07T02:36:29.207Z,102222.06
2022-08-07T02:38:40.178Z,102222.75
2022-08-07T02:41:23.195Z,102217.00
2022-08-07T02:44:15.430Z,102224.03
2022-08-07T02:46:53.064Z,102224.34
2022-08-07T02:49:56.507Z,102220.66
2022-08-07T02:52:22.237Z,102220.13
2022-08-07T02:55:27.359Z,102223.19
2022-08-07T02:58:06.081Z,102214.56
2022-08-07T03:00:47.564Z,102210.06
2022-08-07T03:03:22.878Z,102214.13
2022-08-07T03:05:57.968Z,102216.16
2022-08-07T03:08:30.497Z,102218.06
2022-08-07T03:11:05.006Z,102222.16
2022-08-07T03:13:49.999Z,102221.53
2022-08-07T03:16:27.866Z,102226.09
2022-08-07T03:19:00.439Z,102223.41
2022-08-07T03:21:33.723Z,102222.44
2022-08-07T03:24:19.873Z,102220.34
2022-08-07T03:27:03.610Z,102221.88
2022-08-07T03:29:49.526Z,102231.47
2022-08-07T03:32:30.580Z,102225.63
2022-08-07T03:35:18.082Z,102222.75
2022-08-07T03:37:57.279Z,102220.59
2022-08-07T03:40:31.004Z,102226.16
2022-08-07T03:43:14.495Z,102223.44
2022-08-07T03:45:48.576Z,102225.16
2022-08-07T03:48:24.059Z,102231.00
2022-08-07T03:50:58.931Z,102231.09
2022-08-07T03:54:01.804Z,102232.28
2022-08-07T03:56:33.181Z,102231.81
2022-08-07T03:59:13.333Z,102230.00
2022-08-07T04:01:46.692Z,102228.47
2022-08-07T04:04:23.609Z,102233.91
2022-08-07T04:06:55.957Z,102237.41
2022-08-07T04:09:45.513Z,102234.25
2022-08-07T04:12:27.908Z,102227.94
2022-08-07T04:15:04.888Z,102231.38
2022-08-07T04:18:56.976Z,102236.84
2022-08-07T04:20:32.236Z,102230.91
2022-08-07T04:23:07.438Z,102234.91
2022-08-07T04:25:51.909Z,102237.25
2022-08-07T04:28:25.305Z,102234.53
2022-08-07T04:30:58.743Z,102232.88
2022-08-07T04:33:32.160Z,102234.53
2022-08-07T04:36:12.030Z,102243.16
2022-08-07T04:38:43.989Z,102236.78
2022-08-07T04:41:19.144Z,102237.66
2022-08-07T04:44:11.301Z,102234.03
2022-08-07T04:47:04.232Z,102235.03
2022-08-07T04:49:57.842Z,102242.47
2022-08-07T04:52:46.677Z,102242.38
2022-08-07T04:58:13.926Z,102250.03
2022-08-07T04:58:34.842Z,102244.56
2022-08-07T05:01:30.502Z,102242.72
2022-08-07T05:04:17.092Z,102257.66
2022-08-07T05:06:59.908Z,102247.53
2022-08-07T05:09:51.618Z,102245.66
2022-08-07T05:12:30.726Z,102247.06
2022-08-07T05:15:23.031Z,102243.69
2022-08-07T05:18:01.744Z,102245.38
2022-08-07T05:20:44.849Z,102251.00
2022-08-07T05:23:23.206Z,102257.28
2022-08-07T05:26:13.625Z,102255.25
2022-08-07T05:28:51.687Z,102257.94
2022-08-07T05:31:34.522Z,102255.44
2022-08-07T05:34:11.398Z,102256.53
2022-08-07T05:36:52.875Z,102255.13
2022-08-07T05:40:14.055Z,102257.13
2022-08-07T05:42:33.761Z,102251.50
2022-08-07T05:45:14.716Z,102257.50
2022-08-07T05:48:03.641Z,102257.94
2022-08-07T05:50:39.385Z,102253.66
2022-08-07T05:54:09.726Z,102261.19
2022-08-07T05:56:08.828Z,102261.75
2022-08-07T05:58:52.750Z,102264.41
2022-08-07T06:01:27.120Z,102257.09
2022-08-07T06:04:08.447Z,102256.22
2022-08-07T06:06:46.339Z,102257.56
2022-08-07T06:09:21.349Z,102264.31
2022-08-07T06:12:15.401Z,102265.53
2022-08-07T06:14:51.655Z,102264.47
2022-08-07T06:17:31.915Z,102267.44
2022-08-07T06:20:31.881Z,102266.91
2022-08-07T06:23:45.881Z,102266.69
2022-08-07T06:26:07.579Z,102265.16
2022-08-07T06:28:52.811Z,102268.50
2022-08-07T06:31:46.610Z,102258.47
2022-08-07T06:34:21.559Z,102269.97
2022-08-07T06:36:54.198Z,102256.81
2022-08-07T06:40:16.344Z,102265.44
2022-08-07T06:42:33.034Z,102269.88
2022-08-07T06:45:18.034Z,102267.84
2022-08-07T06:47:58.621Z,102263.78
2022-08-07T06:50:36.081Z,102262.56
2022-08-07T06:54:11.845Z,102265.16
2022-08-07T06:56:03.691Z,102267.69
2022-08-07T07:00:13.788Z,102268.72
2022-08-07T07:01:42.047Z,102266.94
2022-08-07T07:04:32.695Z,102270.28
2022-08-07T07:07:19.046Z,102265.38
2022-08-07T07:09:59.907Z,102267.63
2022-08-07T07:12:48.413Z,102268.31
2022-08-07T07:15:26.506Z,102258.97
2022-08-07T07:18:13.399Z,102262.28
2022-08-07T07:20:54.886Z,102265.31
2022-08-07T07:24:08.570Z,102262.25
2022-08-07T07:26:32.620Z,102268.81
2022-08-07T07:29:56.427Z,102262.25
2022-08-07T07:32:11.820Z,102259.28
2022-08-07T07:34:50.095Z,102256.06
2022-08-07T07:37:49.401Z,102256.38
2022-08-07T07:40:25.296Z,102249.44
2022-08-07T07:43:15.176Z,102258.19
2022-08-07T07:46:39.946Z,102254.06
2022-08-07T07:48:47.090Z,102247.13
2022-08-07T07:51:22.919Z,102244.09
2022-08-07T07:53:59.888Z,102240.53
2022-08-07T07:56:36.529Z,102236.09
2022-08-07T07:59:09.468Z,102242.47
2022-08-07T08:02:03.296Z,102233.56
2022-08-07T08:04:40.299Z,102224.56
2022-08-07T08:07:13.887Z,102228.94
2022-08-07T08:10:05.412Z,102229.09
2022-08-07T08:12:52.297Z,102231.22
2022-08-07T08:15:57.641Z,102224.47
2022-08-07T08:18:27.939Z,102226.34
2022-08-07T08:21:04.587Z,102220.75
2022-08-07T08:23:52.147Z,102219.50
2022-08-07T08:26:40.807Z,102215.75
2022-08-07T08:29:16.025Z,102213.81
2022-08-07T08:32:16.715Z,102214.22
2022-08-07T08:34:46.534Z,102219.03
2022-08-07T08:38:01.129Z,102216.97
2022-08-07T08:40:27.829Z,102211.84
2022-08-07T08:43:12.379Z,102214.50
2022-08-07T08:45:59.154Z,102211.31
2022-08-07T08:48:43.271Z,102212.72
2022-08-07T08:51:49.566Z,102211.53
2022-08-07T08:54:24.344Z,102202.38
2022-08-07T08:56:59.588Z,102205.47
2022-08-07T08:59:48.470Z,102197.41
2022-08-07T09:02:37.543Z,102208.38
2022-08-07T09:05:41.330Z,102191.69
2022-08-07T09:08:29.500Z,102200.22
2022-08-07T09:11:24.864Z,102193.78
2022-08-07T09:14:15.219Z,102201.72
2022-08-07T09:17:03.758Z,102188.66
2022-08-07T09:19:57.030Z,102185.41
2022-08-07T09:24:32.367Z,102200.25
2022-08-07T09:25:53.993Z,102192.69
2022-08-07T09:30:05.705Z,102186.41
2022-08-07T09:31:40.429Z,102189.19
2022-08-07T09:34:33.147Z,102185.81
2022-08-07T09:37:11.138Z,102186.38
2022-08-07T09:39:57.968Z,102183.81
2022-08-07T09:42:51.332Z,102175.00
2022-08-07T09:47:50.580Z,102171.22
2022-08-07T09:49:02.277Z,102167.06
2022-08-07T09:52:10.402Z,102173.03
2022-08-07T09:54:52.839Z,102163.88
2022-08-07T09:57:53.369Z,102165.00
2022-08-07T10:00:33.159Z,102161.84
2022-08-07T10:04:06.763Z,102162.00
2022-08-07T10:06:54.073Z,102156.16
2022-08-07T10:10:03.334Z,102150.13
2022-08-07T10:12:58.929Z,102145.06
2022-08-07T10:15:56.426Z,102143.16
2022-08-07T10:18:48.536Z,102138.72
2022-08-07T10:22:11.994Z,102139.81
2022-08-07T10:25:07.138Z,102133.81
2022-08-07T10:27:56.001Z,102132.47
2022-08-07T10:30:37.998Z,102134.84
2022-08-07T10:34:05.689Z,102126.50
2022-08-07T10:36:37.774Z,102119.41
2022-08-07T10:39:21.922Z,102119.94
2022-08-07T10:42:20.928Z,102119.25
2022-08-07T10:45:05.768Z,102117.56
2022-08-07T10:47:59.908Z,102110.84
2022-08-07T10:50:44.895Z,102109.06
2022-08-07T10:53:41.847Z,102107.47
2022-08-07T10:56:30.940Z,102104.56
2022-08-07T10:59:37.054Z,102099.38
2022-08-07T11:02:33.478Z,102102.53
2022-08-07T11:05:17.084Z,102093.25
2022-08-07T11:08:03.478Z,102093.19
2022-08-07T11:10:42.445Z,102092.28
2022-08-07T11:14:45.607Z,102082.84
2022-08-07T11:16:29.813Z,102082.25
2022-08-07T11:19:08.993Z,102078.69
2022-08-07T11:21:48.875Z,102076.56
2022-08-07T11:24:27.413Z,102068.88
2022-08-07T11:27:16.914Z,102061.88
2022-08-07T11:30:17.798Z,102060.81
2022-08-07T11:33:00.174Z,102055.22
2022-08-07T11:35:59.686Z,102064.81
2022-08-07T11:38:36.924Z,102061.63
2022-08-07T11:41:18.258Z,102056.53
2022-08-07T11:44:14.302Z,102048.81
2022-08-07T11:47:05.981Z,102052.97
2022-08-07T11:50:31.190Z,102048.66
2022-08-07T11:53:14.013Z,102040.31
2022-08-07T11:56:27.555Z,102045.59
2022-08-07T12:00:09.955Z,102038.34
2022-08-07T12:02:52.683Z,102045.50
2022-08-07T12:06:37.844Z,102035.22
2022-08-07T12:10:05.877Z,102023.84
2022-08-07T12:13:01.475Z,102033.09
2022-08-07T12:16:06.564Z,102020.28
2022-08-07T12:18:57.098Z,102020.13
2022-08-07T12:22:37.933Z,102020.59
2022-08-07T12:25:07.540Z,102018.84
2022-08-07T12:28:04.056Z,102013.53
2022-08-07T12:30:46.969Z,102013.63
2022-08-07T12:33:30.916Z,102010.19
2022-08-07T12:36:32.626Z,102009.78
2022-08-07T12:39:44.209Z,102003.47
2022-08-07T12:42:04.564Z,102006.59
2022-08-07T12:44:43.044Z,101999.47
2022-08-07T12:47:37.266Z,101995.88
2022-08-07T12:50:34.247Z,101998.38
2022-08-07T12:53:21.889Z,101996.03
2022-08-07T12:56:09.387Z,101988.22
2022-08-07T12:58:57.283Z,101987.06
2022-08-07T13:01:46.222Z,101982.69
2022-08-07T13:04:49.049Z,101979.16
2022-08-07T13:08:25.697Z,101974.13
2022-08-07T13:11:19.527Z,101972.84
2022-08-07T13:14:05.277Z,101971.91
2022-08-07T13:16:51.378Z,101959.25
2022-08-07T13:19:50.162Z,101964.50
2022-08-07T13:22:33.566Z,101956.31
2022-08-07T13:25:23.931Z,101959.75
2022-08-07T13:28:13.378Z,101947.69
2022-08-07T13:31:01.602Z,101954.59
2022-08-07T13:34:30.524Z,101947.25
2022-08-07T13:36:46.648Z,101955.00
2022-08-07T13:40:34.165Z,101951.25
2022-08-07T13:42:27.828Z,101944.16
2022-08-07T13:46:07.113Z,101944.78
2022-08-07T13:48:07.673Z,101931.09
2022-08-07T13:50:45.241Z,101937.84
2022-08-07T13:54:00.688Z,101926.81
2022-08-07T13:56:41.182Z,101926.34
2022-08-07T13:59:27.940Z,101919.72
2022-08-07T14:02:10.089Z,101927.53
2022-08-07T14:04:54.823Z,101923.97
2022-08-07T14:07:31.285Z,101918.59
2022-08-07T14:10:21.930Z,101923.94
2022-08-07T14:13:01.637Z,101920.47
2022-08-07T14:15:39.433Z,101916.28
2022-08-07T14:18:28.657Z,101911.53
2022-08-07T14:22:01.187Z,101910.03
2022-08-07T14:24:11.323Z,101908.84
2022-08-07T14:26:51.804Z,101910.03
2022-08-07T14:30:05.897Z,101902.25
2022-08-07T14:32:21.244Z,101895.06
2022-08-07T14:38:26.368Z,101885.75
2022-08-07T14:41:05.593Z,101892.69
2022-08-07T14:43:57.265Z,101889.91
2022-08-07T14:46:33.578Z,101889.66
2022-08-07T14:49:55.928Z,101889.44
2022-08-07T14:54:56.954Z,101880.81
2022-08-07T16:04:14.903Z,101847.94
2022-08-07T16:08:33.151Z,101846.34
2022-08-07T16:10:31.413Z,101844.91
2022-08-07T16:13:59.040Z,101838.56
2022-08-07T16:18:01.719Z,101836.22
2022-08-07T16:20:36.967Z,101839.75
2022-08-07T16:23:52.933Z,101835.25
2022-08-07T16:26:30.509Z,101840.03
2022-08-07T16:30:06.346Z,101833.66
2022-08-07T16:32:34.638Z,101836.56
2022-08-07T16:35:58.825Z,101836.44
2022-08-07T16:39:01.515Z,101839.94
2022-08-07T16:42:00.281Z,101839.13
2022-08-07T16:46:21.213Z,101838.69
2022-08-07T16:48:53.533Z,101831.31
2022-08-07T16:51:57.858Z,101830.44
2022-08-07T16:54:55.060Z,101833.81
2022-08-07T16:58:01.647Z,101838.28
2022-08-07T17:00:36.856Z,101829.59
2022-08-07T17:04:00.110Z,101833.91
2022-08-07T17:10:33.778Z,101830.75
2022-08-07T17:14:18.543Z,101831.94
2022-08-07T17:17:21.641Z,101823.34
2022-08-07T17:20:14.267Z,101829.56
2022-08-07T17:23:03.268Z,101828.59
2022-08-07T17:26:49.761Z,101827.81
2022-08-07T17:30:15.733Z,101834.91
2022-08-07T17:33:05.596Z,101843.22
2022-08-07T17:36:02.646Z,101841.88
2022-08-07T17:38:44.478Z,101840.47
2022-08-07T17:42:02.490Z,101835.59
2022-08-07T17:44:41.605Z,101842.31
2022-08-07T17:47:38.320Z,101839.50
2022-08-07T17:50:20.045Z,101840.84
2022-08-07T17:52:59.078Z,101840.25
2022-08-07T17:55:54.151Z,101840.50
2022-08-07T17:58:46.495Z,101842.66
2022-08-07T18:01:27.718Z,101844.31
2022-08-07T18:04:21.880Z,101831.69
2022-08-07T18:07:20.898Z,101847.31
2022-08-07T18:10:07.533Z,101839.31
2022-08-07T18:13:09.952Z,101839.44
2022-08-07T18:15:58.921Z,101844.47
2022-08-07T18:21:03.008Z,101839.31
2022-08-07T18:21:55.171Z,101831.31
2022-08-07T18:24:35.441Z,101834.91
2022-08-07T18:27:39.207Z,101841.53
2022-08-07T18:30:31.672Z,101840.50
2022-08-07T18:33:54.790Z,101837.88
2022-08-07T18:36:41.077Z,101853.03
2022-08-07T18:40:07.038Z,101849.19
2022-08-07T18:42:28.583Z,101849.88
2022-08-07T18:45:44.583Z,101854.00
2022-08-07T18:50:05.840Z,101854.72
2022-08-07T18:52:35.031Z,101861.72
2022-08-07T18:54:31.224Z,101862.69
2022-08-07T18:57:40.270Z,101866.28
2022-08-07T19:00:34.349Z,101869.91
2022-08-07T19:03:16.661Z,101865.69
2022-08-07T19:06:02.462Z,101868.47
2022-08-07T19:08:53.591Z,101875.84
2022-08-07T19:12:03.931Z,101870.81
2022-08-07T19:16:03.004Z,101883.69
2022-08-07T19:18:14.546Z,101877.41
2022-08-07T19:21:08.321Z,101878.47
2022-08-07T19:23:57.918Z,101880.81
2022-08-07T19:27:10.374Z,101879.75
2022-08-07T19:31:02.235Z,101883.75
2022-08-07T19:32:32.547Z,101877.44
2022-08-07T19:35:15.977Z,101876.78
2022-08-07T19:37:56.546Z,101888.78
2022-08-07T19:40:49.637Z,101893.22
2022-08-07T19:43:45.081Z,101896.56
2022-08-07T19:46:35.858Z,101895.28
2022-08-07T19:49:09.738Z,101899.91
2022-08-07T19:51:53.254Z,101894.22
2022-08-07T19:54:44.973Z,101897.59
2022-08-07T19:58:00.290Z,101895.91
2022-08-07T20:00:38.974Z,101897.75
2022-08-07T20:03:35.570Z,101901.38
2022-08-07T20:06:28.401Z,101903.03
2022-08-07T20:09:03.667Z,101907.88
2022-08-07T20:12:22.330Z,101911.47
2022-08-07T20:14:53.895Z,101910.78
2022-08-07T20:17:38.631Z,101907.66
2022-08-07T20:20:13.720Z,101918.75
2022-08-07T20:22:49.046Z,101916.66
2022-08-07T20:25:22.275Z,101912.88
2022-08-07T20:28:03.344Z,101916.56
2022-08-07T20:30:46.844Z,101912.53
2022-08-07T20:33:36.250Z,101920.50
2022-08-07T20:36:13.369Z,101923.06
2022-08-07T20:39:00.304Z,101923.88
2022-08-07T20:41:40.297Z,101919.84
2022-08-07T20:44:14.447Z,101923.41
2022-08-07T20:47:05.847Z,101926.31
2022-08-07T20:49:59.336Z,101918.72
2022-08-07T20:52:51.972Z,101922.22
2022-08-07T20:55:25.827Z,101924.03
2022-08-07T20:58:19.507Z,101924.50
2022-08-07T21:01:04.755Z,101924.84
2022-08-07T21:04:07.224Z,101924.16
2022-08-07T21:06:42.462Z,101926.44
2022-08-07T21:09:27.875Z,101927.63
2022-08-07T21:12:05.685Z,101928.41
2022-08-07T21:14:48.357Z,101931.47
2022-08-07T21:18:03.235Z,101934.53
2022-08-07T21:20:30.059Z,101936.78
2022-08-07T21:23:11.361Z,101933.91
2022-08-07T21:26:03.403Z,101934.66
2022-08-07T21:28:48.887Z,101938.75
2022-08-07T21:31:49.877Z,101938.50
2022-08-07T21:34:33.094Z,101935.78
2022-08-07T21:37:14.693Z,101935.84
2022-08-07T21:39:57.467Z,101936.13
2022-08-07T21:42:48.865Z,101930.00
2022-08-07T21:46:09.179Z,101935.88
2022-08-07T21:48:33.788Z,101927.16
2022-08-07T21:51:19.982Z,101927.06
2022-08-07T21:54:16.244Z,101922.47
2022-08-07T21:57:31.122Z,101928.53
2022-08-07T22:00:11.279Z,101940.13
2022-08-07T22:03:05.777Z,101938.94
2022-08-07T22:05:50.150Z,101931.97
2022-08-07T22:08:26.051Z,101933.19
2022-08-07T22:11:03.813Z,101935.28
2022-08-07T22:13:52.250Z,101930.03
2022-08-07T22:16:43.937Z,101932.88
2022-08-07T22:19:39.181Z,101933.34
2022-08-07T22:22:21.062Z,101929.97
2022-08-07T22:25:11.326Z,101929.03
2022-08-07T22:28:24.628Z,101928.34
2022-08-07T22:30:58.215Z,101936.16
2022-08-07T22:33:56.368Z,101931.56
2022-08-07T22:36:40.664Z,101936.53
2022-08-07T22:39:29.495Z,101938.69
2022-08-07T22:42:19.506Z,101930.09
2022-08-07T22:44:59.857Z,101936.72
2022-08-07T22:47:58.945Z,101932.22
2022-08-07T22:50:50.016Z,101937.06
2022-08-07T22:54:05.423Z,101931.53
2022-08-07T22:56:42.797Z,101941.66
2022-08-07T22:59:53.178Z,101943.56
2022-08-07T23:03:00.895Z,101940.69
2022-08-07T23:06:08.314Z,101942.28
2022-08-07T23:10:00.937Z,101939.53
2022-08-07T23:12:09.886Z,101930.56
2022-08-07T23:15:04.287Z,101934.91
2022-08-07T23:18:02.896Z,101943.56
2022-08-07T23:20:54.814Z,101938.78
2022-08-07T23:24:06.746Z,101945.38
2022-08-07T23:26:56.264Z,101941.94
2022-08-07T23:30:38.281Z,101948.53
2022-08-07T23:34:21.382Z,101945.06
2022-08-07T23:36:34.795Z,101951.34
2022-08-07T23:39:22.054Z,101942.56
2022-08-07T23:42:21.698Z,101938.19
2022-08-07T23:46:01.407Z,101945.91
2022-08-07T23:48:44.104Z,101942.09
2022-08-07T23:53:02.154Z,101941.13
2022-08-07T23:54:36.211Z,101943.34
2022-08-07T23:57:27.695Z,101937.94
